createdAt,value
2022-09-16T00:05:38.118Z,1.45
2022-09-16T00:15:45.864Z,1.10
2022-09-16T00:25:55.753Z,1.50
2022-09-16T00:36:12.628Z,1.20
2022-09-16T00:46:16.449Z,1.37
2022-09-16T00:56:23.908Z,1.52
2022-09-16T01:06:27.269Z,1.55
2022-09-16T01:16:29.498Z,1.47
2022-09-16T01:26:48.964Z,1.42
2022-09-16T01:37:00.586Z,1.40
2022-09-16T01:47:10.727Z,1.87
2022-09-16T01:57:26.511Z,1.75
2022-09-16T02:07:33.833Z,1.52
2022-09-16T02:17:42.517Z,1.65
2022-09-16T02:27:47.363Z,1.60
2022-09-16T02:37:58.726Z,1.83
2022-09-16T02:48:11.941Z,1.87
2022-09-16T02:58:14.306Z,1.60
2022-09-16T03:08:16.645Z,1.60
2022-09-16T03:18:43.564Z,1.60
2022-09-16T03:29:16.098Z,1.92
2022-09-16T03:39:19.246Z,1.70
2022-09-16T03:49:21.554Z,2.17
2022-09-16T03:59:24.206Z,1.90
2022-09-16T04:09:26.706Z,1.60
2022-09-16T04:19:29.109Z,1.50
2022-09-16T04:29:32.685Z,2.55
2022-09-16T04:39:35.164Z,1.50
2022-09-16T04:49:37.475Z,1.70
2022-09-16T04:59:39.803Z,1.40
2022-09-16T05:09:42.043Z,1.67
2022-09-16T05:19:44.627Z,1.60
2022-09-16T05:29:47.774Z,1.70
2022-09-16T05:39:50.450Z,1.83
2022-09-16T05:49:55.627Z,1.65
2022-09-16T05:59:59.299Z,1.73
2022-09-16T06:10:02.029Z,1.45
2022-09-16T06:20:04.608Z,2.08
2022-09-16T06:30:07.734Z,2.30
2022-09-16T06:40:11.390Z,2.10
2022-09-16T06:50:13.899Z,1.87
2022-09-16T07:00:17.072Z,2.70
2022-09-16T07:10:19.846Z,2.00
2022-09-16T07:20:22.558Z,1.70
2022-09-16T07:30:29.305Z,2.53
2022-09-16T07:40:33.927Z,2.83
2022-09-16T07:50:37.568Z,2.33
2022-09-16T08:00:44.812Z,2.07
2022-09-16T08:10:55.575Z,2.67
2022-09-16T08:21:06.195Z,2.70
2022-09-16T08:31:10.596Z,3.97
2022-09-16T08:41:28.454Z,3.03
2022-09-16T08:51:32.132Z,3.10
2022-09-16T09:01:50.145Z,3.53
2022-09-16T09:12:21.462Z,3.67
2022-09-16T09:22:45.570Z,3.20
2022-09-16T09:33:46.248Z,3.58
2022-09-16T09:44:06.298Z,3.22
2022-09-16T09:54:27.728Z,2.92
2022-09-16T10:04:39.889Z,2.67
2022-09-16T10:14:48.280Z,2.85
2022-09-16T10:25:12.021Z,2.58
2022-09-16T10:35:32.531Z,2.85
2022-09-16T10:45:48.789Z,1.87
2022-09-16T10:56:02.011Z,2.60
2022-09-16T11:06:41.440Z,2.10
2022-09-16T11:17:12.628Z,3.08
2022-09-16T11:27:42.068Z,2.08
2022-09-16T11:37:52.540Z,2.17
2022-09-16T11:48:20.302Z,2.08
2022-09-16T11:58:30.023Z,2.03
2022-09-16T12:08:45.239Z,2.12
2022-09-16T12:18:54.130Z,2.10
2022-09-16T12:28:58.554Z,1.90
2022-09-16T12:39:07.956Z,1.98
2022-09-16T12:49:50.571Z,1.48
2022-09-16T13:00:11.111Z,1.52
2022-09-16T13:10:40.613Z,1.40
2022-09-16T13:21:06.370Z,1.73
2022-09-16T13:41:49.863Z,1.98
2022-09-16T13:51:53.255Z,1.60
2022-09-16T14:02:16.088Z,2.10
2022-09-16T14:12:24.452Z,1.80
2022-09-16T14:22:29.072Z,1.77
2022-09-16T14:32:35.294Z,1.75
2022-09-16T14:42:39.124Z,2.10
2022-09-16T14:52:41.907Z,1.73
2022-09-16T15:02:51.156Z,1.40
2022-09-16T15:13:00.252Z,1.48
2022-09-16T15:23:04.140Z,1.73
2022-09-16T15:33:31.113Z,1.87
2022-09-16T15:43:45.905Z,2.12
2022-09-16T15:53:50.314Z,2.00
2022-09-16T16:03:53.639Z,1.77
2022-09-16T16:14:01.680Z,1.80
2022-09-16T16:24:05.666Z,1.75
2022-09-16T16:34:08.589Z,1.92
2022-09-16T16:44:11.114Z,1.77
2022-09-16T16:54:14.146Z,1.50
2022-09-16T17:04:16.593Z,1.35
2022-09-16T17:14:19.084Z,2.25
2022-09-16T17:24:22.348Z,1.67
2022-09-16T17:34:26.711Z,1.42
2022-09-16T17:54:32.234Z,1.70
2022-09-16T18:04:34.916Z,1.70
2022-09-16T18:14:37.689Z,1.45
2022-09-16T18:24:40.251Z,1.27
2022-09-16T18:34:42.764Z,1.30
2022-09-16T18:44:45.750Z,1.20
2022-09-16T18:54:51.887Z,1.52
2022-09-16T19:04:54.715Z,1.02
2022-09-16T19:14:58.286Z,1.80
2022-09-16T19:25:01.709Z,2.22
2022-09-16T19:35:05.006Z,1.80
2022-09-16T19:45:08.204Z,1.52
2022-09-16T19:55:10.743Z,1.98
2022-09-16T20:05:13.389Z,1.67
2022-09-16T20:15:16.039Z,1.35
2022-09-16T20:25:23.525Z,1.20
2022-09-16T20:35:26.361Z,1.20
2022-09-16T20:45:28.829Z,1.62
2022-09-16T20:55:31.392Z,1.58
2022-09-16T21:05:33.802Z,1.55
2022-09-16T21:15:36.231Z,1.85
2022-09-16T21:25:38.844Z,1.58
2022-09-16T21:35:50.529Z,1.20
2022-09-16T21:45:53.027Z,1.37
2022-09-16T21:56:04.354Z,1.77
2022-09-16T22:06:09.280Z,1.73
2022-09-16T22:16:26.912Z,1.42
2022-09-16T22:26:31.095Z,1.62
2022-09-16T22:36:35.512Z,1.40
2022-09-16T22:46:45.445Z,1.55
2022-09-16T22:56:47.775Z,1.48
2022-09-16T23:06:50.141Z,1.50
2022-09-16T23:16:54.573Z,1.55
2022-09-16T23:26:56.748Z,1.12
2022-09-16T23:36:59.061Z,1.75
2022-09-16T23:47:01.323Z,1.40
2022-09-16T23:57:03.945Z,1.10
